Time;durP1;ratioP1;P1;durP2;ratioP2;P2;SDS_P1;SDS_P2;PMS_P1;PMS_P2;Temp;Humidity;BMP_temperature;BMP_pressure;BME280_temperature;BME280_humidity;BME280_pressure;Samples;Min_cycle;Max_cycle;Signal;HPM_P1;HPM_P2
2023/06/29 00:00:13;;;;;;;20.38;11.70;;;;;;;;;;5018350;28;25061;-62
2023/06/29 00:02:39;;;;;;;22.02;12.48;;;;;;;;;;5014577;28;25060;-63
2023/06/29 00:05:06;;;;;;;20.60;12.05;;;;;;;;;;5012468;28;25138;-64
2023/06/29 00:07:33;;;;;;;21.60;12.68;;;;;;;;;;5021025;28;25065;-63
2023/06/29 00:10:00;;;;;;;18.52;11.75;;;;;;;;;;5027612;28;25051;-63
2023/06/29 00:12:26;;;;;;;21.77;12.52;;;;;;;;;;5016091;28;25063;-62
2023/06/29 00:14:52;;;;;;;25.10;12.85;;;;;;;;;;5024611;28;25059;-62
2023/06/29 00:17:19;;;;;;;22.10;12.02;;;;;;;;;;5016555;28;25073;-62
2023/06/29 00:19:47;;;;;;;24.63;12.80;;;;;;;;;;5025698;28;25067;-63
2023/06/29 00:22:13;;;;;;;22.45;12.68;;;;;;;;;;5019920;28;25056;-62
2023/06/29 00:24:43;;;;;;;27.10;14.73;;;;;;;;;;5016212;28;25135;-63
2023/06/29 00:27:12;;;;;;;21.38;12.85;;;;;;;;;;5019099;28;25072;-63
2023/06/29 00:29:42;;;;;;;22.83;13.10;;;;;;;;;;5017954;28;25073;-62
2023/06/29 00:32:12;;;;;;;24.15;13.43;;;;;;;;;;5023018;28;25073;-62
2023/06/29 00:34:38;;;;;;;24.60;12.48;;;;;;;;;;5009575;28;25079;-61
2023/06/29 00:37:05;;;;;;;20.98;13.60;;;;;;;;;;5024379;28;25058;-63
2023/06/29 00:39:32;;;;;;;21.75;13.20;;;;;;;;;;5023857;28;25532;-63
2023/06/29 00:41:58;;;;;;;29.48;14.82;;;;;;;;;;5023193;28;25056;-62
2023/06/29 00:44:23;;;;;;;30.23;14.35;;;;;;;;;;5019560;28;25068;-62
2023/06/29 00:46:50;;;;;;;27.30;15.00;;;;;;;;;;5017688;28;25069;-63
2023/06/29 00:49:16;;;;;;;23.60;14.45;;;;;;;;;;5020949;28;25091;-63
2023/06/29 00:51:42;;;;;;;27.95;15.23;;;;;;;;;;5017656;28;25094;-62
2023/06/29 00:54:08;;;;;;;25.20;15.57;;;;;;;;;;5016912;28;25143;-62
2023/06/29 00:56:37;;;;;;;23.90;14.77;;;;;;;;;;5015005;28;25048;-62
2023/06/29 00:59:03;;;;;;;22.00;13.35;;;;;;;;;;5013087;28;25049;-63
2023/06/29 01:01:29;;;;;;;25.80;14.63;;;;;;;;;;5019014;28;25072;-63
2023/06/29 01:03:57;;;;;;;26.33;15.68;;;;;;;;;;5028393;28;25075;-64
2023/06/29 01:06:29;;;;;;;26.90;14.50;;;;;;;;;;5028308;28;25115;-64
2023/06/29 01:08:55;;;;;;;;;;;;;;;;;;5020129;28;25056;-64
2023/06/29 01:11:22;;;;;;;22.65;13.07;;;;;;;;;;5012564;28;25068;-62
2023/06/29 01:13:49;;;;;;;20.17;12.98;;;;;;;;;;5021633;28;25092;-63
2023/06/29 01:16:15;;;;;;;25.45;14.18;;;;;;;;;;5018474;28;25082;-64
2023/06/29 01:18:43;;;;;;;25.25;13.65;;;;;;;;;;5015064;28;25055;-64
2023/06/29 01:21:10;;;;;;;24.35;13.82;;;;;;;;;;5017596;28;25130;-64
2023/06/29 01:23:37;;;;;;;28.08;14.55;;;;;;;;;;5009438;28;25073;-65
2023/06/29 01:26:06;;;;;;;24.10;14.82;;;;;;;;;;5022928;28;25073;-64
2023/06/29 01:28:38;;;;;;;26.20;13.77;;;;;;;;;;5008686;28;25144;-62
2023/06/29 01:31:05;;;;;;;25.48;14.70;;;;;;;;;;5023444;28;25062;-63
2023/06/29 01:33:31;;;;;;;23.05;14.00;;;;;;;;;;5016348;28;25100;-62
2023/06/29 01:36:15;;;;;;;26.50;15.60;;;;;;;;;;5023602;28;25072;-62
2023/06/29 01:38:48;;;;;;;30.02;15.55;;;;;;;;;;5020811;28;25088;-63
2023/06/29 01:41:16;;;;;;;29.48;15.45;;;;;;;;;;5017647;28;25079;-63
2023/06/29 01:43:43;;;;;;;30.50;16.10;;;;;;;;;;5018725;28;25130;-64
2023/06/29 01:46:09;;;;;;;32.83;16.45;;;;;;;;;;5017093;28;25144;-63
2023/06/29 01:48:36;;;;;;;25.17;15.73;;;;;;;;;;5013514;28;25055;-64
2023/06/29 01:51:02;;;;;;;28.15;15.30;;;;;;;;;;5026255;28;25055;-65
2023/06/29 01:53:28;;;;;;;27.52;15.30;;;;;;;;;;5020854;28;25085;-63
2023/06/29 01:55:54;;;;;;;27.35;15.60;;;;;;;;;;5021491;28;25097;-63
2023/06/29 01:58:20;;;;;;;26.77;14.93;;;;;;;;;;5015924;28;25091;-63
2023/06/29 02:00:46;;;;;;;27.90;15.43;;;;;;;;;;5008948;28;25104;-64
2023/06/29 02:03:12;;;;;;;29.52;16.45;;;;;;;;;;5031996;28;25140;-63
2023/06/29 02:05:38;;;;;;;24.42;15.18;;;;;;;;;;5014488;28;25051;-63
2023/06/29 02:08:05;;;;;;;30.67;16.02;;;;;;;;;;5021932;28;25092;-61
2023/06/29 02:10:32;;;;;;;30.45;15.90;;;;;;;;;;5018128;28;25128;-62
2023/06/29 02:12:58;;;;;;;24.23;14.38;;;;;;;;;;5022509;28;25051;-61
2023/06/29 02:15:24;;;;;;;26.38;15.90;;;;;;;;;;5022467;28;25081;-63
2023/06/29 02:17:50;;;;;;;27.70;15.45;;;;;;;;;;5021951;28;25089;-61
2023/06/29 02:20:17;;;;;;;29.75;15.43;;;;;;;;;;5013440;28;25059;-61
2023/06/29 02:22:43;;;;;;;30.73;17.27;;;;;;;;;;5020561;28;25173;-63
2023/06/29 02:25:11;;;;;;;33.67;17.35;;;;;;;;;;5013011;28;25103;-62
2023/06/29 02:27:37;;;;;;;30.63;17.17;;;;;;;;;;5009688;28;25073;-62
2023/06/29 02:30:03;;;;;;;33.08;17.13;;;;;;;;;;5019985;28;25080;-62
2023/06/29 02:32:29;;;;;;;32.65;18.00;;;;;;;;;;5018659;28;25091;-62
2023/06/29 02:34:55;;;;;;;36.28;18.55;;;;;;;;;;5025019;28;25082;-62
2023/06/29 02:37:21;;;;;;;32.33;18.27;;;;;;;;;;5019178;28;25170;-62
2023/06/29 02:39:47;;;;;;;34.88;19.27;;;;;;;;;;5024687;28;25130;-63
2023/06/29 02:42:13;;;;;;;33.00;19.13;;;;;;;;;;5028503;28;25090;-63
2023/06/29 02:44:39;;;;;;;38.00;22.42;;;;;;;;;;5018701;28;25075;-62
2023/06/29 02:47:05;;;;;;;43.45;21.02;;;;;;;;;;5025463;28;25153;-63
2023/06/29 02:49:31;;;;;;;35.78;19.95;;;;;;;;;;5020972;28;25059;-63
2023/06/29 02:51:57;;;;;;;32.80;18.23;;;;;;;;;;5022524;28;25128;-63
2023/06/29 02:54:23;;;;;;;36.75;19.52;;;;;;;;;;5029191;28;25097;-63
2023/06/29 02:56:49;;;;;;;37.47;19.80;;;;;;;;;;5036347;28;25147;-65
2023/06/29 02:59:15;;;;;;;34.13;20.35;;;;;;;;;;5031434;28;25078;-63
2023/06/29 03:01:41;;;;;;;34.60;18.90;;;;;;;;;;5030410;28;25127;-63
2023/06/29 03:04:07;;;;;;;36.83;20.33;;;;;;;;;;5028372;28;25103;-62
2023/06/29 03:06:33;;;;;;;36.40;20.00;;;;;;;;;;5022642;28;25078;-64
2023/06/29 03:08:59;;;;;;;38.17;21.15;;;;;;;;;;5024665;28;25159;-62
2023/06/29 03:11:24;;;;;;;45.00;21.70;;;;;;;;;;5023073;28;25079;-62
2023/06/29 03:13:51;;;;;;;32.78;18.67;;;;;;;;;;5026702;28;25069;-62
2023/06/29 03:16:17;;;;;;;41.08;20.80;;;;;;;;;;5028145;28;25073;-63
2023/06/29 03:18:43;;;;;;;35.95;20.50;;;;;;;;;;5025676;28;25070;-63
2023/06/29 03:21:09;;;;;;;37.00;21.23;;;;;;;;;;5024642;28;25072;-64
2023/06/29 03:23:35;;;;;;;35.38;19.90;;;;;;;;;;5024583;28;25189;-62
2023/06/29 03:26:01;;;;;;;36.53;20.58;;;;;;;;;;5022874;28;25057;-63
2023/06/29 03:28:27;;;;;;;41.22;20.98;;;;;;;;;;5014968;28;25074;-62
2023/06/29 03:30:52;;;;;;;41.13;21.95;;;;;;;;;;5023391;28;25140;-64
2023/06/29 03:33:18;;;;;;;38.40;19.70;;;;;;;;;;5017861;28;25118;-63
2023/06/29 03:35:44;;;;;;;35.95;20.27;;;;;;;;;;5019065;28;25091;-62
2023/06/29 03:38:10;;;;;;;36.75;21.13;;;;;;;;;;5018126;28;25109;-62
2023/06/29 03:40:36;;;;;;;38.88;20.13;;;;;;;;;;5019496;28;25111;-62
2023/06/29 03:43:02;;;;;;;38.72;20.75;;;;;;;;;;5023469;28;25066;-64
2023/06/29 03:45:30;;;;;;;36.63;20.05;;;;;;;;;;5018253;28;25068;-64
2023/06/29 03:47:56;;;;;;;39.47;19.30;;;;;;;;;;5017536;28;25051;-62
2023/06/29 03:50:22;;;;;;;34.47;19.25;;;;;;;;;;5017260;28;25152;-62
2023/06/29 03:52:48;;;;;;;37.92;19.92;;;;;;;;;;5022411;28;25128;-63
2023/06/29 03:55:13;;;;;;;39.63;20.10;;;;;;;;;;5013582;28;25089;-63
2023/06/29 03:57:39;;;;;;;34.88;19.90;;;;;;;;;;5016004;28;25070;-63
2023/06/29 04:00:06;;;;;;;38.53;18.80;;;;;;;;;;5025677;28;25096;-64
2023/06/29 04:02:32;;;;;;;37.95;20.45;;;;;;;;;;5023482;28;25062;-63
2023/06/29 04:04:58;;;;;;;34.78;18.42;;;;;;;;;;5014783;28;25053;-63
2023/06/29 04:07:24;;;;;;;39.58;20.35;;;;;;;;;;5031096;28;25072;-63
2023/06/29 04:09:50;;;;;;;40.05;19.75;;;;;;;;;;5020191;28;25079;-62
2023/06/29 04:12:16;;;;;;;36.20;19.02;;;;;;;;;;5015433;28;25071;-63
2023/06/29 04:14:41;;;;;;;40.38;21.60;;;;;;;;;;5023341;28;25155;-64
2023/06/29 04:17:07;;;;;;;36.42;20.75;;;;;;;;;;5021379;28;25112;-64
2023/06/29 04:19:33;;;;;;;34.03;20.40;;;;;;;;;;5015699;28;25099;-63
2023/06/29 04:21:59;;;;;;;43.88;22.05;;;;;;;;;;5025737;28;25100;-64
2023/06/29 04:24:25;;;;;;;38.05;21.63;;;;;;;;;;5018829;28;25053;-62
2023/06/29 04:26:51;;;;;;;39.67;21.10;;;;;;;;;;5017821;28;25063;-62
2023/06/29 04:29:17;;;;;;;45.10;21.60;;;;;;;;;;5018001;28;25152;-63
2023/06/29 04:31:43;;;;;;;41.88;21.92;;;;;;;;;;5024385;28;25138;-64
2023/06/29 04:34:09;;;;;;;40.65;23.30;;;;;;;;;;5015264;28;25075;-61
2023/06/29 04:36:35;;;;;;;43.05;22.67;;;;;;;;;;5019775;28;25066;-63
2023/06/29 04:39:01;;;;;;;39.92;22.05;;;;;;;;;;5018856;28;25079;-62
2023/06/29 04:41:33;;;;;;;38.20;20.05;;;;;;;;;;5024817;28;25063;-63
2023/06/29 04:43:59;;;;;;;42.35;20.75;;;;;;;;;;5013605;28;25084;-62
2023/06/29 04:46:28;;;;;;;35.20;19.95;;;;;;;;;;5008572;28;25093;-63
2023/06/29 04:48:53;;;;;;;44.05;22.92;;;;;;;;;;5015803;28;25139;-62
2023/06/29 04:51:20;;;;;;;39.88;21.75;;;;;;;;;;5020227;28;25075;-66
2023/06/29 04:53:46;;;;;;;38.13;20.77;;;;;;;;;;5011990;28;25071;-61
2023/06/29 04:56:12;;;;;;;37.85;18.88;;;;;;;;;;5005309;28;25134;-62
2023/06/29 04:58:38;;;;;;;35.88;19.25;;;;;;;;;;5015675;28;25082;-62
2023/06/29 05:01:04;;;;;;;40.30;19.75;;;;;;;;;;5010359;28;25097;-62
2023/06/29 05:03:30;;;;;;;30.52;17.25;;;;;;;;;;5024274;28;25081;-62
2023/06/29 05:05:56;;;;;;;35.45;19.45;;;;;;;;;;5022619;28;25101;-62
2023/06/29 05:08:22;;;;;;;33.03;19.38;;;;;;;;;;5016501;28;25063;-62
2023/06/29 05:10:48;;;;;;;32.38;19.00;;;;;;;;;;5012006;28;25161;-61
2023/06/29 05:13:14;;;;;;;37.05;20.83;;;;;;;;;;5017471;28;25099;-61
2023/06/29 05:15:40;;;;;;;41.10;20.90;;;;;;;;;;5012055;28;25062;-61
2023/06/29 05:18:06;;;;;;;38.92;20.05;;;;;;;;;;5025170;28;25083;-64
2023/06/29 05:20:32;;;;;;;40.55;20.95;;;;;;;;;;5028744;28;25072;-62
2023/06/29 05:23:00;;;;;;;37.97;21.00;;;;;;;;;;5018934;28;25144;-62
2023/06/29 05:25:26;;;;;;;38.17;21.38;;;;;;;;;;5018846;28;25064;-63
2023/06/29 05:27:52;;;;;;;36.03;18.92;;;;;;;;;;5016013;28;25115;-64
2023/06/29 05:30:18;;;;;;;40.38;20.30;;;;;;;;;;5021381;28;25162;-62
2023/06/29 05:32:43;;;;;;;36.63;20.13;;;;;;;;;;5021489;28;25140;-63
2023/06/29 05:35:11;;;;;;;35.25;18.92;;;;;;;;;;5012846;28;25067;-61
2023/06/29 05:37:37;;;;;;;41.50;19.95;;;;;;;;;;5014982;28;25504;-62
2023/06/29 05:40:03;;;;;;;34.17;20.23;;;;;;;;;;5015961;28;25059;-60
2023/06/29 05:42:29;;;;;;;41.13;20.55;;;;;;;;;;5022502;28;25066;-62
2023/06/29 05:44:55;;;;;;;35.30;18.20;;;;;;;;;;5010865;28;25086;-61
2023/06/29 05:47:21;;;;;;;40.55;21.33;;;;;;;;;;5011256;28;25103;-62
2023/06/29 05:49:47;;;;;;;41.38;21.67;;;;;;;;;;5008415;28;25052;-61
2023/06/29 05:52:13;;;;;;;35.90;19.80;;;;;;;;;;5012933;28;25082;-64
2023/06/29 05:54:39;;;;;;;34.97;19.15;;;;;;;;;;5014416;28;25059;-62
2023/06/29 05:57:05;;;;;;;42.25;21.15;;;;;;;;;;5020130;28;25073;-62
2023/06/29 05:59:31;;;;;;;40.47;21.88;;;;;;;;;;5022262;28;25102;-62
2023/06/29 06:01:57;;;;;;;39.28;20.38;;;;;;;;;;5010721;28;25113;-61
2023/06/29 06:04:23;;;;;;;39.67;21.58;;;;;;;;;;5013806;28;25069;-64
2023/06/29 06:06:49;;;;;;;38.92;21.23;;;;;;;;;;5011106;28;25054;-62
2023/06/29 06:09:15;;;;;;;38.47;20.05;;;;;;;;;;5021514;28;25083;-61
2023/06/29 06:11:41;;;;;;;44.78;21.27;;;;;;;;;;5023535;28;25102;-61
2023/06/29 06:14:07;;;;;;;39.40;21.45;;;;;;;;;;5016753;28;25008;-60
2023/06/29 06:16:33;;;;;;;34.08;20.27;;;;;;;;;;5016423;28;25067;-61
2023/06/29 06:18:59;;;;;;;34.53;20.40;;;;;;;;;;5015711;28;25080;-62
2023/06/29 06:21:25;;;;;;;38.58;20.55;;;;;;;;;;5012824;28;25074;-61
2023/06/29 06:23:52;;;;;;;42.08;21.33;;;;;;;;;;5020193;28;25056;-61
2023/06/29 06:26:18;;;;;;;37.30;20.65;;;;;;;;;;5016753;28;25068;-63
2023/06/29 06:28:44;;;;;;;37.35;20.58;;;;;;;;;;5015800;28;25126;-61
2023/06/29 06:31:09;;;;;;;40.80;21.55;;;;;;;;;;5016945;28;25074;-62
2023/06/29 06:33:35;;;;;;;40.22;21.33;;;;;;;;;;5014995;28;25064;-61
2023/06/29 06:36:02;;;;;;;38.45;21.00;;;;;;;;;;5011604;28;25054;-62
2023/06/29 06:38:28;;;;;;;36.05;20.40;;;;;;;;;;5008231;28;25115;-61
2023/06/29 06:40:54;;;;;;;33.10;19.10;;;;;;;;;;5009979;28;25054;-62
2023/06/29 06:43:20;;;;;;;41.70;22.63;;;;;;;;;;5015790;28;25143;-61
2023/06/29 06:45:46;;;;;;;39.90;21.83;;;;;;;;;;5011685;28;25157;-61
2023/06/29 06:48:12;;;;;;;42.92;23.55;;;;;;;;;;5010396;28;25122;-62
2023/06/29 06:50:38;;;;;;;36.28;21.20;;;;;;;;;;5014427;28;25067;-62
2023/06/29 06:53:04;;;;;;;41.85;22.80;;;;;;;;;;5011856;28;25066;-61
2023/06/29 06:55:30;;;;;;;42.13;22.70;;;;;;;;;;5011870;28;25073;-61
2023/06/29 06:57:56;;;;;;;41.80;23.80;;;;;;;;;;5017247;28;25076;-62
2023/06/29 07:00:22;;;;;;;41.47;24.88;;;;;;;;;;5018766;28;25065;-62
2023/06/29 07:02:48;;;;;;;39.30;22.95;;;;;;;;;;5013491;28;25139;-61
2023/06/29 07:05:14;;;;;;;39.08;23.73;;;;;;;;;;5008933;28;25058;-61
2023/06/29 07:07:40;;;;;;;42.30;24.95;;;;;;;;;;5008686;28;25066;-61
2023/06/29 07:10:07;;;;;;;42.58;23.83;;;;;;;;;;5010311;28;25106;-63
2023/06/29 07:12:32;;;;;;;41.45;24.25;;;;;;;;;;5014084;28;25077;-62
2023/06/29 07:14:58;;;;;;;38.72;23.85;;;;;;;;;;5010951;28;25060;-62
2023/06/29 07:17:26;;;;;;;42.92;24.60;;;;;;;;;;5010755;28;25055;-62
2023/06/29 07:19:52;;;;;;;38.83;23.67;;;;;;;;;;5021215;28;25055;-61
2023/06/29 07:22:17;;;;;;;37.28;21.30;;;;;;;;;;5014568;28;25059;-61
2023/06/29 07:24:43;;;;;;;41.45;23.25;;;;;;;;;;5014681;28;25072;-62
2023/06/29 07:27:09;;;;;;;39.47;21.98;;;;;;;;;;5023994;28;25124;-62
2023/06/29 07:29:35;;;;;;;36.13;20.38;;;;;;;;;;5028331;28;25076;-63
2023/06/29 07:32:01;;;;;;;40.13;21.60;;;;;;;;;;5021146;28;25070;-63
2023/06/29 07:34:27;;;;;;;34.35;20.33;;;;;;;;;;5016174;28;25066;-62
2023/06/29 07:36:53;;;;;;;37.45;22.15;;;;;;;;;;5017142;28;25065;-63
2023/06/29 07:39:19;;;;;;;34.67;20.65;;;;;;;;;;5018101;28;25105;-62
2023/06/29 07:41:45;;;;;;;40.28;20.45;;;;;;;;;;5012932;28;25063;-64
2023/06/29 07:44:11;;;;;;;35.80;19.23;;;;;;;;;;5014672;28;25066;-63
2023/06/29 07:46:37;;;;;;;35.78;19.05;;;;;;;;;;5016568;28;25059;-63
2023/06/29 07:49:03;;;;;;;38.08;20.77;;;;;;;;;;5016209;28;25068;-63
2023/06/29 07:51:32;;;;;;;37.25;19.40;;;;;;;;;;5023638;28;25127;-63
2023/06/29 07:54:00;;;;;;;34.85;19.63;;;;;;;;;;5020384;28;25123;-62
2023/06/29 07:56:26;;;;;;;32.75;18.60;;;;;;;;;;5023443;28;25059;-61
2023/06/29 07:58:52;;;;;;;32.50;19.08;;;;;;;;;;5014434;28;25150;-63
2023/06/29 08:01:18;;;;;;;31.58;18.38;;;;;;;;;;5017341;28;25055;-63
2023/06/29 08:03:45;;;;;;;34.05;19.60;;;;;;;;;;5013675;28;25068;-61
2023/06/29 08:06:11;;;;;;;34.22;19.02;;;;;;;;;;5023149;28;25102;-61
2023/06/29 08:08:38;;;;;;;31.17;18.30;;;;;;;;;;5017166;28;25054;-62
2023/06/29 08:11:04;;;;;;;34.47;19.25;;;;;;;;;;5018808;28;25080;-62
2023/06/29 08:13:30;;;;;;;32.53;18.48;;;;;;;;;;5020267;28;25052;-62
2023/06/29 08:15:55;;;;;;;28.85;17.10;;;;;;;;;;5015461;28;25048;-63
2023/06/29 08:18:21;;;;;;;30.60;17.98;;;;;;;;;;5018202;28;25150;-64
2023/06/29 08:20:48;;;;;;;32.67;18.40;;;;;;;;;;5020463;28;25071;-62
2023/06/29 08:23:14;;;;;;;33.65;17.33;;;;;;;;;;5012722;28;25081;-63
2023/06/29 08:25:40;;;;;;;27.00;17.35;;;;;;;;;;5018051;28;25140;-62
2023/06/29 08:28:06;;;;;;;31.23;17.38;;;;;;;;;;5011795;28;25070;-63
2023/06/29 08:30:32;;;;;;;26.85;16.77;;;;;;;;;;5018982;28;25080;-63
2023/06/29 08:32:58;;;;;;;34.80;18.42;;;;;;;;;;5018166;28;25100;-62
2023/06/29 08:35:24;;;;;;;33.25;18.00;;;;;;;;;;5021501;28;25097;-62
2023/06/29 08:37:50;;;;;;;32.13;17.80;;;;;;;;;;5012415;28;25064;-62
2023/06/29 08:40:21;;;;;;;30.60;18.40;;;;;;;;;;5013989;28;25129;-62
2023/06/29 08:42:47;;;;;;;28.27;18.23;;;;;;;;;;5018908;28;25055;-63
2023/06/29 08:45:13;;;;;;;31.88;17.63;;;;;;;;;;5017232;28;25073;-61
2023/06/29 08:47:39;;;;;;;33.22;19.52;;;;;;;;;;5021395;28;25059;-62
2023/06/29 08:50:06;;;;;;;34.08;18.48;;;;;;;;;;5008636;28;25135;-62
2023/06/29 08:52:33;;;;;;;33.83;19.52;;;;;;;;;;5015741;28;25089;-62
2023/06/29 08:54:59;;;;;;;33.33;19.73;;;;;;;;;;5018000;28;25057;-62
2023/06/29 08:57:27;;;;;;;33.97;19.90;;;;;;;;;;5012895;28;25077;-61
2023/06/29 08:59:53;;;;;;;32.38;20.50;;;;;;;;;;5023357;28;25060;-63
2023/06/29 09:02:19;;;;;;;33.47;18.98;;;;;;;;;;5015891;28;25071;-62
2023/06/29 09:04:45;;;;;;;33.80;18.90;;;;;;;;;;5020865;28;25064;-62
2023/06/29 09:07:14;;;;;;;36.35;19.52;;;;;;;;;;5016961;28;25118;-62
2023/06/29 09:09:40;;;;;;;31.30;18.63;;;;;;;;;;5023573;28;25120;-63
2023/06/29 09:12:06;;;;;;;32.15;19.02;;;;;;;;;;5012997;28;25074;-63
2023/06/29 09:14:35;;;;;;;34.63;18.08;;;;;;;;;;5017015;28;25058;-63
2023/06/29 09:17:02;;;;;;;30.00;17.83;;;;;;;;;;5011952;28;25072;-63
2023/06/29 09:19:29;;;;;;;29.58;17.00;;;;;;;;;;5015976;28;25063;-65
2023/06/29 09:21:56;;;;;;;29.55;18.25;;;;;;;;;;5015850;28;25095;-62
2023/06/29 09:24:22;;;;;;;28.45;16.80;;;;;;;;;;5019072;28;25079;-62
2023/06/29 09:26:49;;;;;;;30.23;17.88;;;;;;;;;;5013633;28;25061;-62
2023/06/29 09:29:16;;;;;;;31.92;17.98;;;;;;;;;;5013482;28;25072;-62
2023/06/29 09:31:53;;;;;;;29.95;17.40;;;;;;;;;;5012658;28;25058;-61
2023/06/29 09:34:20;;;;;;;29.48;17.27;;;;;;;;;;5010795;28;25134;-63
2023/06/29 09:36:46;;;;;;;30.98;18.88;;;;;;;;;;5018524;28;25047;-62
2023/06/29 09:39:12;;;;;;;31.08;17.38;;;;;;;;;;5016664;28;25071;-61
2023/06/29 09:42:11;;;;;;;32.05;19.38;;;;;;;;;;5017399;28;25118;-62
2023/06/29 09:44:39;;;;;;;32.50;19.20;;;;;;;;;;4998941;28;25080;-60
2023/06/29 09:47:06;;;;;;;31.65;19.55;;;;;;;;;;5014484;28;25053;-62
2023/06/29 09:49:43;;;;;;;29.70;18.45;;;;;;;;;;5010972;28;25059;-63
2023/06/29 09:52:09;;;;;;;30.60;17.63;;;;;;;;;;5013527;28;25057;-63
2023/06/29 09:54:35;;;;;;;33.83;17.55;;;;;;;;;;5016663;28;25074;-64
2023/06/29 09:57:02;;;;;;;29.13;18.95;;;;;;;;;;5023092;28;25128;-62
2023/06/29 09:59:28;;;;;;;28.92;18.67;;;;;;;;;;5020990;28;25150;-62
2023/06/29 10:01:54;;;;;;;30.20;18.33;;;;;;;;;;5018870;28;25067;-62
2023/06/29 10:04:20;;;;;;;30.70;19.48;;;;;;;;;;5010605;28;25061;-63
2023/06/29 10:06:54;;;;;;;33.25;19.30;;;;;;;;;;5009703;28;25057;-62
2023/06/29 10:09:21;;;;;;;30.95;18.58;;;;;;;;;;5015922;28;25058;-62
2023/06/29 10:11:53;;;;;;;29.70;17.27;;;;;;;;;;5019119;28;25071;-63
2023/06/29 10:14:21;;;;;;;29.95;19.05;;;;;;;;;;5016477;28;25064;-63
2023/06/29 10:16:48;;;;;;;31.85;18.85;;;;;;;;;;5015191;28;25045;-62
2023/06/29 10:19:16;;;;;;;31.40;19.75;;;;;;;;;;5010363;28;25109;-63
2023/06/29 10:21:43;;;;;;;28.13;17.73;;;;;;;;;;5016632;28;25106;-64
2023/06/29 10:24:10;;;;;;;30.45;19.08;;;;;;;;;;5013369;28;25067;-63
2023/06/29 10:26:36;;;;;;;30.02;19.08;;;;;;;;;;5009086;28;25103;-63
2023/06/29 10:29:03;;;;;;;30.80;19.02;;;;;;;;;;5017149;28;25100;-62
2023/06/29 10:31:35;;;;;;;30.45;18.15;;;;;;;;;;5021135;28;25055;-63
2023/06/29 10:34:01;;;;;;;30.20;18.42;;;;;;;;;;5014873;28;25063;-63
2023/06/29 10:36:43;;;;;;;32.08;17.88;;;;;;;;;;5018547;28;25145;-62
2023/06/29 10:39:28;;;;;;;27.33;17.65;;;;;;;;;;5016246;28;25128;-62
2023/06/29 10:41:54;;;;;;;32.08;17.70;;;;;;;;;;5018681;28;25117;-63
2023/06/29 10:44:21;;;;;;;28.38;18.08;;;;;;;;;;5018569;28;25059;-62
2023/06/29 10:46:48;;;;;;;28.13;17.27;;;;;;;;;;5018601;28;25058;-63
2023/06/29 10:49:24;;;;;;;30.80;17.23;;;;;;;;;;5013053;28;25145;-62
2023/06/29 10:51:52;;;;;;;28.58;17.00;;;;;;;;;;5016283;28;25087;-62
2023/06/29 10:54:21;;;;;;;24.13;15.40;;;;;;;;;;5022184;28;25084;-61
2023/06/29 10:56:56;;;;;;;28.25;15.77;;;;;;;;;;5024262;28;25063;-62
2023/06/29 10:59:22;;;;;;;25.17;15.35;;;;;;;;;;5017377;28;25067;-63
2023/06/29 11:01:48;;;;;;;26.48;14.48;;;;;;;;;;5022139;28;25065;-62
2023/06/29 11:04:14;;;;;;;23.80;13.95;;;;;;;;;;5020921;28;25052;-63
2023/06/29 11:06:40;;;;;;;21.98;13.93;;;;;;;;;;5018492;28;25057;-63
2023/06/29 11:09:13;;;;;;;22.10;13.20;;;;;;;;;;5022529;28;25071;-63
2023/06/29 11:11:39;;;;;;;20.73;12.63;;;;;;;;;;5018807;28;25064;-62
2023/06/29 11:14:05;;;;;;;20.88;12.75;;;;;;;;;;5018022;28;25142;-62
2023/06/29 11:16:33;;;;;;;21.35;13.10;;;;;;;;;;5021945;28;25059;-62
2023/06/29 11:19:02;;;;;;;18.42;11.80;;;;;;;;;;5018574;28;25068;-63
2023/06/29 11:21:28;;;;;;;20.73;12.70;;;;;;;;;;5016425;28;25076;-61
2023/06/29 11:23:54;;;;;;;26.38;13.77;;;;;;;;;;5022902;28;25082;-62
2023/06/29 11:26:20;;;;;;;19.48;11.38;;;;;;;;;;5017125;28;25149;-62
2023/06/29 11:28:49;;;;;;;18.17;11.15;;;;;;;;;;5016890;28;25039;-63
2023/06/29 11:31:16;;;;;;;21.40;11.63;;;;;;;;;;5020010;28;25073;-62
2023/06/29 11:33:48;;;;;;;18.73;11.02;;;;;;;;;;5019630;28;25083;-62
2023/06/29 11:36:14;;;;;;;18.20;11.63;;;;;;;;;;5020610;28;25078;-63
2023/06/29 11:38:41;;;;;;;24.63;12.68;;;;;;;;;;5017467;28;25077;-62
2023/06/29 11:41:07;;;;;;;18.35;10.50;;;;;;;;;;5017073;28;25051;-61
2023/06/29 11:43:33;;;;;;;17.58;11.00;;;;;;;;;;5013850;28;25062;-62
2023/06/29 11:45:59;;;;;;;18.48;10.93;;;;;;;;;;5022585;28;25082;-64
2023/06/29 11:48:26;;;;;;;18.98;9.40;;;;;;;;;;5011602;28;25082;-62
2023/06/29 11:50:52;;;;;;;15.20;9.25;;;;;;;;;;5023458;28;25056;-62
2023/06/29 11:53:18;;;;;;;16.95;9.82;;;;;;;;;;5009505;28;25063;-61
2023/06/29 11:55:51;;;;;;;17.60;9.68;;;;;;;;;;5015584;28;25074;-62
2023/06/29 11:58:17;;;;;;;19.17;9.70;;;;;;;;;;5014082;28;25130;-63
2023/06/29 12:00:43;;;;;;;19.00;10.68;;;;;;;;;;5022589;28;25158;-63
2023/06/29 12:03:09;;;;;;;17.58;10.10;;;;;;;;;;5020196;28;25082;-61
2023/06/29 12:05:39;;;;;;;16.83;10.43;;;;;;;;;;5025252;28;25161;-62
2023/06/29 12:08:06;;;;;;;20.92;11.05;;;;;;;;;;5022245;28;25071;-62
2023/06/29 12:10:35;;;;;;;19.17;11.13;;;;;;;;;;5019368;28;25059;-61
2023/06/29 12:13:01;;;;;;;20.15;11.02;;;;;;;;;;5014643;28;25053;-64
2023/06/29 12:15:28;;;;;;;24.10;11.93;;;;;;;;;;5019802;28;25068;-62
2023/06/29 12:18:13;;;;;;;20.80;12.60;;;;;;;;;;5024411;28;25069;-62
2023/06/29 12:20:40;;;;;;;19.08;11.45;;;;;;;;;;5013208;28;25081;-61
2023/06/29 12:23:06;;;;;;;21.27;10.95;;;;;;;;;;5015715;28;25065;-64
2023/06/29 12:25:32;;;;;;;21.95;11.30;;;;;;;;;;5014118;28;25128;-62
2023/06/29 12:27:58;;;;;;;21.85;11.88;;;;;;;;;;5022936;28;25047;-62
2023/06/29 12:30:24;;;;;;;21.45;12.02;;;;;;;;;;5016017;28;25149;-62
2023/06/29 12:32:50;;;;;;;21.88;11.43;;;;;;;;;;5016531;28;25121;-61
2023/06/29 12:35:17;;;;;;;18.83;10.45;;;;;;;;;;5020377;28;25073;-64
2023/06/29 12:37:43;;;;;;;18.15;10.95;;;;;;;;;;5014421;28;25053;-62
2023/06/29 12:40:09;;;;;;;22.23;10.57;;;;;;;;;;5015469;28;25078;-63
2023/06/29 12:42:36;;;;;;;22.27;11.68;;;;;;;;;;5016517;28;25194;-62
2023/06/29 12:45:04;;;;;;;22.25;12.48;;;;;;;;;;5018008;28;25100;-62
2023/06/29 12:47:30;;;;;;;22.25;11.15;;;;;;;;;;5017665;28;25130;-64
2023/06/29 12:49:56;;;;;;;18.10;11.05;;;;;;;;;;5016690;28;25162;-63
2023/06/29 12:52:22;;;;;;;20.60;10.65;;;;;;;;;;5012527;28;25118;-62
2023/06/29 12:54:48;;;;;;;21.80;12.05;;;;;;;;;;5015499;28;25146;-63
2023/06/29 12:57:14;;;;;;;18.58;11.07;;;;;;;;;;5018595;28;25104;-63
2023/06/29 12:59:40;;;;;;;18.98;11.25;;;;;;;;;;5014963;28;25075;-63
2023/06/29 13:02:07;;;;;;;22.20;11.13;;;;;;;;;;5022608;28;25055;-62
2023/06/29 13:04:34;;;;;;;19.90;10.60;;;;;;;;;;5021930;28;25147;-61
2023/06/29 13:07:00;;;;;;;19.38;10.18;;;;;;;;;;5021419;28;25097;-62
2023/06/29 13:09:26;;;;;;;18.85;11.02;;;;;;;;;;5019479;28;25050;-62
2023/06/29 13:11:52;;;;;;;19.27;10.13;;;;;;;;;;5012452;28;25074;-62
2023/06/29 13:14:18;;;;;;;18.98;10.70;;;;;;;;;;5020416;28;25161;-62
2023/06/29 13:16:44;;;;;;;20.80;11.15;;;;;;;;;;5012616;28;25082;-63
2023/06/29 13:19:10;;;;;;;19.27;10.65;;;;;;;;;;5015875;28;25078;-62
2023/06/29 13:21:36;;;;;;;21.40;10.82;;;;;;;;;;5017815;28;25083;-62
2023/06/29 13:24:02;;;;;;;19.48;11.88;;;;;;;;;;5012328;28;25069;-62
2023/06/29 13:26:28;;;;;;;23.30;11.55;;;;;;;;;;5020162;28;25172;-62
2023/06/29 13:28:54;;;;;;;19.65;11.57;;;;;;;;;;5011686;28;25100;-61
2023/06/29 13:31:20;;;;;;;21.27;12.88;;;;;;;;;;5014842;28;25146;-63
2023/06/29 13:33:46;;;;;;;21.33;12.27;;;;;;;;;;5015861;28;25075;-61
2023/06/29 13:36:12;;;;;;;21.88;13.00;;;;;;;;;;5017680;28;25061;-63
2023/06/29 13:38:38;;;;;;;23.48;12.27;;;;;;;;;;5015530;28;25075;-63
2023/06/29 13:41:04;;;;;;;25.55;12.13;;;;;;;;;;5014554;28;25055;-63
2023/06/29 13:43:30;;;;;;;22.05;11.82;;;;;;;;;;5019586;28;25067;-62
2023/06/29 13:45:56;;;;;;;20.95;12.15;;;;;;;;;;5014736;28;25069;-62
2023/06/29 13:48:22;;;;;;;26.27;12.63;;;;;;;;;;5014478;28;25072;-63
2023/06/29 13:50:48;;;;;;;21.20;12.30;;;;;;;;;;5018705;28;25055;-61
2023/06/29 13:53:14;;;;;;;23.30;12.88;;;;;;;;;;5009973;28;25098;-63
2023/06/29 13:55:44;;;;;;;30.00;14.20;;;;;;;;;;5014170;28;25090;-61
2023/06/29 13:58:11;;;;;;;25.23;13.48;;;;;;;;;;5018375;28;25062;-62
2023/06/29 14:00:36;;;;;;;32.30;14.88;;;;;;;;;;5016601;28;25081;-61
2023/06/29 14:03:03;;;;;;;26.92;15.23;;;;;;;;;;5019922;28;25069;-63
2023/06/29 14:05:29;;;;;;;26.55;15.50;;;;;;;;;;5012600;28;25069;-62
2023/06/29 14:07:58;;;;;;;27.70;14.23;;;;;;;;;;5019373;28;25164;-63
2023/06/29 14:10:25;;;;;;;30.98;14.93;;;;;;;;;;5014680;28;25077;-63
2023/06/29 14:12:51;;;;;;;30.23;14.32;;;;;;;;;;5018196;28;25138;-61
2023/06/29 14:15:17;;;;;;;23.98;13.68;;;;;;;;;;5021354;28;25078;-62